MST,Max TemperatureF,Mean TemperatureF,Min TemperatureF,Max Dew PointF,MeanDew PointF,Min DewpointF,Max Humidity, Mean Humidity, Min Humidity, Max Sea Level PressureIn, Mean Sea Level PressureIn, Min Sea Level PressureIn, Max VisibilityMiles, Mean VisibilityMiles, Min VisibilityMiles, Max Wind SpeedMPH, Mean Wind SpeedMPH, Max Gust SpeedMPH,PrecipitationIn, CloudCover, Events, WindDirDegrees
2013-2-1,36,22,8,25,14,6,100,82,64,30.42,30.23,30.15,10,6,0,13,3,13,0.00,3,Fog,165
2013-2-2,34,18,2,22,11,-1,100,81,61,30.56,30.48,30.43,10,10,9,9,2,10,0.00,0,,88
2013-2-3,29,16,2,19,10,0,92,80,68,30.43,30.23,30.13,10,9,1,8,2,8,0.00,0,,147
2013-2-4,38,21,3,24,14,0,92,74,56,30.14,30.07,29.98,10,10,10,12,2,20,0.00,2,,215
2013-2-5,39,24,8,25,15,5,96,80,63,30.15,30.03,29.91,10,10,10,7,3,8,0.00,1,,159
2013-2-6,36,24,11,23,17,10,96,80,64,30.25,30.06,29.88,10,10,8,10,3,13,0.00,1,,129
2013-2-7,29,17,5,20,12,4,100,82,63,30.30,30.18,30.06,10,9,7,10,2,14,0.00,0,,113
2013-2-8,31,18,5,22,14,4,100,82,63,30.10,30.02,29.93,10,10,9,9,2,20,0.00,3,,181
2013-2-9,32,27,21,27,24,19,100,85,69,29.92,29.82,29.74,10,5,0,12,3,20,0.06,7,Fog-Snow,230
2013-2-10,28,16,3,22,16,1,92,74,55,30.28,30.02,29.77,10,10,9,29,10,35,0.00,5,,335
2013-2-11,24,10,-5,10,4,-7,91,73,55,30.32,30.25,30.18,10,10,10,13,4,15,0.00,0,,174
2013-2-12,33,16,-2,16,6,-5,86,65,43,30.34,30.24,30.15,10,10,10,14,4,16,0.00,1,,171
2013-2-13,37,22,6,25,16,5,85,67,49,30.17,30.11,30.03,10,10,10,16,4,18,0.00,3,,182
2013-2-14,31,27,22,28,21,16,96,77,58,30.44,30.29,30.05,10,5,0,21,7,25,0.08,8,Fog-Snow,325
2013-2-15,34,20,6,23,15,4,92,79,66,30.55,30.39,30.28,10,5,0,13,3,13,0.05,4,Fog-Snow,114
2013-2-16,36,18,0,21,10,-1,100,78,56,30.40,30.24,29.97,10,8,1,7,1,8,0.00,1,,140
2013-2-17,38,23,8,24,17,7,100,76,52,30.04,29.89,29.79,10,10,5,20,5,26,0.00,3,,248
2013-2-18,34,22,9,21,16,8,100,75,49,30.18,30.13,29.99,10,9,2,14,5,24,T,3,Snow,180
2013-2-19,33,18,2,18,9,0,92,74,55,30.12,29.95,29.83,10,9,2,8,3,10,0.00,0,,206
2013-2-20,28,17,5,17,12,4,96,79,62,29.97,29.90,29.82,10,10,8,7,2,,0.00,0,,119
2013-2-21,28,18,7,18,13,3,100,82,63,30.08,30.02,29.83,10,8,2,7,1,7,T,5,Snow,132
2013-2-22,34,18,2,18,8,1,100,71,41,30.16,30.00,29.88,10,7,0,15,4,26,0.00,1,Fog,126
2013-2-23,33,22,10,27,22,7,92,73,54,29.94,29.76,29.62,10,5,0,31,8,39,0.03,7,Fog-Snow,358
2013-2-24,32,24,16,20,16,9,81,70,58,30.22,30.15,29.97,10,10,10,24,11,32,0.00,2,,355
2013-2-25,35,19,2,22,13,2,91,69,47,30.22,30.07,29.94,10,10,10,13,5,16,0.00,2,,167
2013-2-26,36,25,13,27,19,10,100,69,38,30.32,30.05,29.87,10,7,0,20,7,23,0.04,4,Fog-Snow,290
2013-2-27,34,19,3,18,11,3,96,72,47,30.47,30.38,30.33,10,10,10,14,4,15,0.00,1,,149
2013-2-28,39,23,6,19,12,4,92,70,47,30.44,30.39,30.33,10,10,10,10,3,10,0.00,1,,162